BGKK

Kulusuk Airport

Kulusuk, Greenland
METAR BGKK 190250Z AUTO 21004KT 170V240 9999NDV BKN055/// BKN084/// 03/M02 Q1012
Observed Flight Rules
Sep-19 @ 02:50 UTC (an hour ago)
Wind Clouds
210° at 4 knots
  • Broken at 5,500' AGL
  • Broken at 8,400' AGL
Temperatures Readings
Current 3°C / 37°F
Dewpoint -2°C / 28°F
Humidity 70%
Altimeter 29.88" Hg
Pressure 1012 hPa
Elevation 34
METAR BGKK 190250Z AUTO 21004KT 170V240 9999NDV BKN055/// BKN084/// 03/M02 Q1012
Observed Flight Rules
Sep-19 @ 02:50 UTC
(an hour ago)
Wind
210° at 4 knots
Clouds
  • Broken at 5,500' AGL
  • Broken at 8,400' AGL
Temperature Dewpoint
3°C / 37°F -2°C / 28°F
Humidity Altimeter Pressure
70% 29.88" Hg 1012 hPa